Time;durP1;ratioP1;P1;durP2;ratioP2;P2;SDS_P1;SDS_P2;PMS_P1;PMS_P2;Temp;Humidity;BMP_temperature;BMP_pressure;BME280_temperature;BME280_humidity;BME280_pressure;Samples;Min_cycle;Max_cycle;Signal;HPM_P1;HPM_P2
2022/01/03 00:02:25;;;;;;;27.42;4.43;;;;;;;9.39;85.94;101168.31;4994792;28;20028;-85
2022/01/03 00:04:51;;;;;;;19.98;5.38;;;;;;;9.31;85.73;101155.81;4994654;28;20034;-87
2022/01/03 00:07:17;;;;;;;19.63;3.97;;;;;;;9.33;86.13;101164.31;4994717;28;20466;-89
2022/01/03 00:09:42;;;;;;;25.60;4.65;;;;;;;9.35;85.99;101177.97;4994180;28;20054;-89
2022/01/03 00:12:08;;;;;;;25.77;4.05;;;;;;;9.20;86.36;101147.81;4994549;28;20027;-86
2022/01/03 00:14:34;;;;;;;23.92;4.43;;;;;;;9.36;86.26;101181.38;4994592;28;20062;-86
2022/01/03 00:17:00;;;;;;;26.65;4.72;;;;;;;9.34;86.09;101178.88;4994556;28;20030;-86
2022/01/03 00:19:25;;;;;;;26.92;4.55;;;;;;;9.28;86.18;101168.06;4993819;28;20038;-86
2022/01/03 00:21:53;;;;;;;21.13;4.10;;;;;;;9.33;86.11;101184.91;4994284;28;20022;-89
2022/01/03 00:24:25;;;;;;;28.33;5.13;;;;;;;9.31;86.31;101186.75;4994096;28;20032;-86
2022/01/03 00:27:01;;;;;;;18.52;4.78;;;;;;;9.30;86.08;101184.25;4994269;28;20058;-84
2022/01/03 00:29:34;;;;;;;26.45;3.97;;;;;;;9.28;86.10;101189.50;4994420;28;20033;-86
2022/01/03 00:32:00;;;;;;;26.52;5.03;;;;;;;9.30;85.96;101192.00;4994128;28;20475;-85
2022/01/03 00:34:29;;;;;;;23.70;4.63;;;;;;;8.94;85.85;101132.88;4994049;28;20077;-87
2022/01/03 00:36:57;;;;;;;28.25;4.72;;;;;;;9.24;86.03;101182.81;4993972;28;20034;-89
2022/01/03 00:39:22;;;;;;;24.70;5.00;;;;;;;9.22;86.50;101183.81;4994000;28;20027;-79
2022/01/03 00:41:49;;;;;;;24.27;3.92;;;;;;;9.25;86.36;101183.69;4994121;28;20496;-86
2022/01/03 00:44:14;;;;;;;21.67;4.20;;;;;;;9.15;85.85;101165.28;4994130;28;20037;-85
2022/01/03 00:46:42;;;;;;;23.33;4.40;;;;;;;9.29;85.36;101187.75;4993694;28;20030;-84
2022/01/03 00:49:08;;;;;;;22.85;5.55;;;;;;;9.19;85.02;101165.03;4993679;28;20101;-84
2022/01/03 00:51:34;;;;;;;23.05;3.90;;;;;;;9.37;84.74;101188.19;4993718;28;20109;-87
2022/01/03 00:53:59;;;;;;;22.55;4.38;;;;;;;9.29;84.60;101173.13;4993721;28;20022;-82
2022/01/03 00:56:36;;;;;;;24.10;4.25;;;;;;;9.17;84.47;101166.88;4994089;28;20493;-86
2022/01/03 00:59:07;;;;;;;21.67;4.13;;;;;;;9.33;84.67;101190.06;4993788;28;20045;-89
2022/01/03 01:01:36;;;;;;;24.17;4.63;;;;;;;9.38;84.83;101189.84;4993668;28;20538;-87
2022/01/03 01:04:02;;;;;;;20.27;4.03;;;;;;;9.37;84.84;101175.31;4993624;28;20034;-79
2022/01/03 01:06:33;;;;;;;21.17;4.22;;;;;;;9.44;84.09;101180.06;4993638;28;20382;-80
2022/01/03 01:09:01;;;;;;;16.27;4.20;;;;;;;9.46;84.13;101191.13;4993442;28;20034;-83
2022/01/03 01:11:29;;;;;;;24.08;5.28;;;;;;;9.45;83.78;101189.47;4993401;28;20438;-87
2022/01/03 01:13:56;;;;;;;25.45;5.18;;;;;;;9.44;84.01;101192.94;4993523;28;20038;-84
2022/01/03 01:16:23;;;;;;;18.35;4.00;;;;;;;9.47;83.92;101199.69;4993300;28;20470;-81
2022/01/03 01:29:18;;;;;;;29.33;4.95;;;;;;;9.49;83.79;101209.00;4993269;28;20045;-76
2022/01/03 01:31:49;;;;;;;17.10;4.32;;;;;;;9.38;83.57;101205.31;4992509;28;20034;-78
2022/01/03 01:34:21;;;;;;;28.92;4.97;;;;;;;9.35;84.46;101221.78;4993456;28;20029;-86
2022/01/03 01:36:50;;;;;;;25.63;5.05;;;;;;;9.31;84.25;101228.00;5093076;23;20434;-85
2022/01/03 01:39:17;;;;;;;22.90;4.80;;;;;;;9.27;84.09;101223.91;5032352;28;20025;-75
2022/01/03 01:41:45;;;;;;;26.48;4.93;;;;;;;9.24;84.37;101221.47;5032617;28;20032;-85
2022/01/03 01:44:11;;;;;;;38.50;5.82;;;;;;;9.29;84.46;101229.00;5032445;28;20384;-75
2022/01/03 01:46:52;;;;;;;22.65;5.18;;;;;;;9.27;84.06;101226.50;5032832;28;20051;-78
2022/01/03 01:49:19;;;;;;;22.95;5.15;;;;;;;9.07;84.00;101195.75;5032510;28;20036;-74
2022/01/03 01:51:48;;;;;;;24.63;4.57;;;;;;;9.17;84.16;101220.97;5032623;28;20489;-75
2022/01/03 01:54:16;;;;;;;27.67;5.22;;;;;;;9.13;84.24;101218.63;5032402;28;20036;-79
2022/01/03 01:57:08;;;;;;;20.92;5.13;;;;;;;9.13;84.32;101216.88;5031807;28;20025;-75
2022/01/03 02:00:01;;;;;;;22.48;4.47;;;;;;;9.12;84.33;101210.06;5032361;28;20064;-76
2022/01/03 02:02:44;;;;;;;26.10;4.72;;;;;;;9.07;84.47;101214.63;5031175;28;20052;-75
2022/01/03 02:05:33;;;;;;;21.52;4.20;;;;;;;9.00;84.79;101223.56;5032405;28;20104;-78
2022/01/03 02:08:02;;;;;;;24.58;4.55;;;;;;;8.90;85.20;101210.31;5032244;28;20033;-85
2022/01/03 02:10:35;;;;;;;23.38;4.53;;;;;;;8.54;85.44;101174.31;5032343;28;20044;-75
2022/01/03 02:13:01;;;;;;;26.13;4.95;;;;;;;8.68;85.79;101201.16;5032284;28;20101;-75
2022/01/03 02:15:27;;;;;;;24.80;6.15;;;;;;;8.38;85.90;101160.56;5032354;28;20068;-74
2022/01/03 02:17:52;;;;;;;24.38;4.70;;;;;;;8.72;85.89;101221.50;5032440;28;20021;-75
2022/01/03 02:20:25;;;;;;;21.00;4.75;;;;;;;8.76;85.94;101227.38;5014258;28;20481;-74
2022/01/03 02:22:51;;;;;;;28.23;4.55;;;;;;;8.74;86.26;101224.00;5032098;28;20527;-75
2022/01/03 02:25:18;;;;;;;28.40;4.95;;;;;;;8.73;85.99;101220.59;5031989;28;20026;-75
2022/01/03 02:27:46;;;;;;;20.08;4.68;;;;;;;8.74;86.10;101224.00;5031888;28;20516;-83
2022/01/03 02:30:14;;;;;;;26.77;5.20;;;;;;;8.66;86.08;101221.00;5032204;28;20397;-75
2022/01/03 02:32:40;;;;;;;26.20;5.15;;;;;;;8.48;85.97;101189.25;5032313;28;20033;-76
2022/01/03 02:35:07;;;;;;;21.20;3.97;;;;;;;8.58;85.97;101217.03;5032050;28;20049;-76
2022/01/03 02:37:32;;;;;;;23.55;4.22;;;;;;;8.55;85.95;101213.75;5031877;28;20212;-77
2022/01/03 02:39:58;;;;;;;19.88;3.95;;;;;;;8.51;86.18;101210.50;5032063;28;20059;-76
2022/01/03 02:42:25;;;;;;;23.10;4.78;;;;;;;8.43;86.54;101186.06;5033791;28;20029;-75
2022/01/03 02:45:06;;;;;;;20.35;4.93;;;;;;;8.63;86.32;101227.09;5017470;28;20128;-84
2022/01/03 02:47:31;;;;;;;22.83;4.22;;;;;;;8.60;86.61;101229.84;5035524;28;20124;-75
2022/01/03 02:49:57;;;;;;;23.98;4.45;;;;;;;8.50;86.46;101214.00;5035631;28;20110;-74
2022/01/03 02:52:23;;;;;;;20.63;3.92;;;;;;;8.46;86.74;101207.34;5035593;28;20032;-78
2022/01/03 02:54:49;;;;;;;24.13;5.28;;;;;;;8.60;86.96;101220.38;5033897;28;20498;-76
2022/01/03 02:57:15;;;;;;;18.65;4.35;;;;;;;8.48;86.60;101202.94;5035188;28;20123;-77
2022/01/03 02:59:41;;;;;;;21.98;5.05;;;;;;;8.66;86.70;101224.41;5035208;28;20060;-75
2022/01/03 03:02:06;;;;;;;23.50;4.95;;;;;;;8.54;86.89;101206.94;5035539;28;20049;-75
2022/01/03 03:04:32;;;;;;;21.42;6.85;;;;;;;8.57;86.62;101214.56;5035371;28;20025;-74
2022/01/03 03:06:57;;;;;;;25.83;5.30;;;;;;;8.50;86.70;101219.16;5035272;28;20029;-74
2022/01/03 03:09:22;;;;;;;25.25;5.30;;;;;;;8.61;87.08;101229.75;5035331;28;20472;-78
2022/01/03 03:11:48;;;;;;;20.65;5.03;;;;;;;8.69;86.69;101224.25;5035221;28;20022;-80
2022/01/03 03:14:13;;;;;;;26.05;5.72;;;;;;;8.58;86.59;101218.78;5035023;28;20473;-83
2022/01/03 03:16:38;;;;;;;23.08;5.90;;;;;;;8.48;86.90;101209.84;5034939;28;20029;-87
2022/01/03 03:19:04;;;;;;;26.25;6.07;;;;;;;8.68;86.43;101237.19;5035159;28;20488;-87
2022/01/03 03:21:30;;;;;;;25.90;6.25;;;;;;;8.73;86.81;101243.78;5035135;28;20057;-85
2022/01/03 03:23:57;;;;;;;25.02;5.85;;;;;;;8.56;86.67;101218.88;5034924;28;20416;-78
2022/01/03 03:26:23;;;;;;;29.65;6.10;;;;;;;8.39;86.93;101190.53;5034785;28;20392;-83
2022/01/03 03:28:49;;;;;;;22.75;6.20;;;;;;;8.71;87.18;101237.88;5034798;28;20033;-75
2022/01/03 03:31:14;;;;;;;24.65;6.00;;;;;;;8.79;86.97;101237.50;5034643;28;20029;-82
2022/01/03 03:33:39;;;;;;;28.70;6.70;;;;;;;8.72;86.97;101242.09;5034770;28;20484;-86
2022/01/03 03:36:05;;;;;;;24.00;5.53;;;;;;;8.69;87.12;101229.41;5034728;28;20026;-83
2022/01/03 03:38:34;;;;;;;24.05;6.20;;;;;;;8.62;86.68;101210.00;5014866;28;20084;-85
2022/01/03 03:41:01;;;;;;;23.50;5.68;;;;;;;8.85;87.00;101239.78;5015037;28;20040;-85
2022/01/03 03:43:27;;;;;;;32.67;6.13;;;;;;;8.78;87.43;101233.25;5014617;28;20033;-85
2022/01/03 03:45:52;;;;;;;31.38;6.35;;;;;;;8.81;86.92;101238.25;5014653;28;20038;-85
2022/01/03 03:48:19;;;;;;;27.23;5.80;;;;;;;8.85;87.00;101232.91;5014721;28;20030;-86
2022/01/03 03:50:46;;;;;;;18.08;5.00;;;;;;;8.87;86.76;101236.22;5014611;28;20026;-85
2022/01/03 03:53:12;;;;;;;28.90;5.82;;;;;;;8.82;86.97;101219.31;5013892;28;20037;-87
2022/01/03 03:55:37;;;;;;;27.38;5.85;;;;;;;8.80;86.82;101213.41;5014485;28;20030;-87
2022/01/03 03:58:04;;;;;;;25.52;5.63;;;;;;;8.83;86.95;101210.69;4996900;28;20042;-84
2022/01/03 04:00:30;;;;;;;25.98;6.45;;;;;;;8.68;86.41;101186.53;5014439;28;20109;-84
2022/01/03 04:02:56;;;;;;;25.02;5.93;;;;;;;8.86;86.88;101221.69;5014083;28;20450;-88
2022/01/03 04:05:22;;;;;;;28.63;5.20;;;;;;;8.77;87.14;101221.31;5014570;28;20057;-88
2022/01/03 04:07:47;;;;;;;22.90;5.35;;;;;;;8.48;87.03;101163.50;5014438;28;20030;-85
2022/01/03 04:10:16;;;;;;;28.45;5.15;;;;;;;8.75;87.00;101200.78;5014441;28;20064;-86
2022/01/03 04:12:43;;;;;;;23.63;5.63;;;;;;;8.74;86.77;101217.13;5014042;28;20101;-86
2022/01/03 04:15:09;;;;;;;29.35;5.50;;;;;;;8.69;87.34;101211.38;5014117;28;20022;-86
2022/01/03 04:17:34;;;;;;;26.23;5.95;;;;;;;8.49;87.66;101191.75;5013785;28;20180;-85
2022/01/03 04:20:00;;;;;;;29.15;5.40;;;;;;;8.67;87.71;101217.50;5014140;28;20347;-86
2022/01/03 04:22:25;;;;;;;31.13;5.68;;;;;;;8.69;87.54;101206.22;5013994;28;20030;-87
2022/01/03 04:24:51;;;;;;;25.10;6.10;;;;;;;8.36;87.51;101144.38;5014055;28;20029;-87
2022/01/03 04:27:16;;;;;;;29.58;5.63;;;;;;;8.64;87.44;101192.72;4995776;28;20045;-87
2022/01/03 04:29:41;;;;;;;24.40;5.13;;;;;;;8.59;87.93;101192.13;5013993;28;20061;-85
2022/01/03 04:32:07;;;;;;;32.20;5.97;;;;;;;8.52;88.07;101199.31;5013663;28;20467;-86
2022/01/03 04:34:32;;;;;;;27.20;5.80;;;;;;;8.52;88.22;101194.16;5014034;28;20137;-75
2022/01/03 04:36:58;;;;;;;32.40;5.97;;;;;;;8.44;88.12;101173.09;4997825;28;20120;-88
2022/01/03 04:39:23;;;;;;;34.65;6.60;;;;;;;8.64;88.07;101203.03;5013856;28;20049;-84
2022/01/03 04:41:49;;;;;;;24.88;5.30;;;;;;;8.72;88.22;101203.50;5013837;28;20022;-84
2022/01/03 04:44:14;;;;;;;21.35;5.63;;;;;;;8.83;87.92;101205.53;5013633;28;20025;-84
2022/01/03 04:46:40;;;;;;;23.55;5.60;;;;;;;8.68;87.11;101171.09;5012177;28;20109;-87
2022/01/03 04:49:06;;;;;;;29.25;6.93;;;;;;;8.83;87.36;101195.22;5013469;28;20496;-86
2022/01/03 04:51:32;;;;;;;32.33;6.53;;;;;;;8.82;87.58;101196.13;5013633;28;20465;-87
2022/01/03 04:53:58;;;;;;;26.52;5.55;;;;;;;8.64;86.81;101159.25;5013528;28;20108;-85
2022/01/03 04:56:27;;;;;;;33.28;6.05;;;;;;;8.80;87.12;101195.38;5013459;28;20040;-85
2022/01/03 04:58:56;;;;;;;27.80;5.50;;;;;;;8.74;87.06;101188.78;5013213;28;20033;-84
2022/01/03 05:01:22;;;;;;;27.30;5.15;;;;;;;8.54;87.34;101155.47;5013372;28;20462;-86
2022/01/03 05:03:48;;;;;;;24.27;5.05;;;;;;;8.54;87.34;101152.91;5013446;28;20441;-84
2022/01/03 05:06:19;;;;;;;26.92;4.93;;;;;;;8.71;87.45;101185.53;5013393;28;20034;-82
2022/01/03 05:08:45;;;;;;;30.20;5.40;;;;;;;8.52;87.34;101150.41;5013210;28;20125;-85
2022/01/03 05:11:11;;;;;;;27.73;5.65;;;;;;;8.74;87.21;101188.78;5013201;28;20453;-87
2022/01/03 05:13:39;;;;;;;23.95;5.57;;;;;;;8.69;87.18;101172.75;5012932;28;20458;-84
2022/01/03 05:16:05;;;;;;;30.85;5.82;;;;;;;8.68;86.82;101173.66;5013005;28;20079;-83
2022/01/03 05:18:30;;;;;;;22.67;5.07;;;;;;;8.42;87.46;101123.47;5013217;28;20033;-85
2022/01/03 05:20:57;;;;;;;25.33;5.78;;;;;;;8.72;87.28;101167.44;5013202;28;20026;-85
2022/01/03 05:23:22;;;;;;;31.40;6.53;;;;;;;8.55;87.12;101152.00;5013029;28;20033;-84
2022/01/03 05:25:48;;;;;;;27.00;5.25;;;;;;;8.71;87.42;101170.09;5013086;28;20022;-87
2022/01/03 05:28:13;;;;;;;23.73;5.07;;;;;;;8.59;87.42;101141.47;5012868;28;20034;-85
2022/01/03 05:30:39;;;;;;;30.63;5.40;;;;;;;8.69;87.44;101169.34;5013222;28;20037;-85
2022/01/03 05:33:04;;;;;;;27.80;5.63;;;;;;;8.77;87.42;101162.91;5012950;28;20048;-82
2022/01/03 05:35:30;;;;;;;25.42;5.53;;;;;;;8.74;87.43;101160.47;5013273;28;20026;-83
2022/01/03 05:37:55;;;;;;;26.67;4.63;;;;;;;8.48;87.30;101122.34;5024174;28;20078;-85
2022/01/03 05:40:21;;;;;;;27.35;5.93;;;;;;;8.68;87.69;101167.69;5032703;28;20026;-84
2022/01/03 05:42:46;;;;;;;34.08;5.82;;;;;;;8.62;87.75;101149.03;5032472;28;20465;-86
2022/01/03 05:45:13;;;;;;;25.98;5.00;;;;;;;8.53;87.78;101149.50;5032389;28;20022;-84
2022/01/03 05:47:40;;;;;;;21.75;4.65;;;;;;;8.46;87.83;101131.88;5032350;28;20075;-85
2022/01/03 05:50:06;;;;;;;28.65;5.75;;;;;;;8.53;87.94;101154.66;5030464;28;20128;-86
2022/01/03 05:52:33;;;;;;;30.95;5.63;;;;;;;8.57;88.39;101160.50;5032677;28;20022;-83
2022/01/03 05:54:58;;;;;;;30.13;6.28;;;;;;;8.42;88.31;101133.75;5032479;28;20142;-86
2022/01/03 05:57:24;;;;;;;28.27;5.20;;;;;;;8.65;88.46;101154.94;5032406;28;20104;-85
2022/01/03 05:59:49;;;;;;;26.90;5.28;;;;;;;8.66;87.96;101157.47;5032264;28;20028;-85
2022/01/03 06:02:15;;;;;;;24.13;5.38;;;;;;;8.65;87.79;101160.91;5032453;28;20060;-82
2022/01/03 06:05:02;;;;;;;31.80;5.25;;;;;;;8.28;88.08;101100.13;5032450;28;20105;-77
2022/01/03 06:07:26;;;;;;;23.50;4.88;;;;;;;8.67;87.96;101155.72;5031953;28;20033;-76
2022/01/03 06:09:54;;;;;;;24.60;4.70;;;;;;;8.62;87.73;101151.63;5032211;28;20052;-82
2022/01/03 06:12:20;;;;;;;26.92;5.00;;;;;;;8.60;88.22;101157.75;5032288;28;20580;-76
2022/01/03 06:14:46;;;;;;;20.58;5.25;;;;;;;8.49;88.28;101135.13;5032109;28;20117;-78
2022/01/03 06:17:13;;;;;;;22.58;4.63;;;;;;;8.46;87.85;101119.00;5033680;28;20107;-75
2022/01/03 06:19:38;;;;;;;28.60;5.43;;;;;;;8.68;87.53;101147.91;5036242;28;20030;-76
2022/01/03 06:22:04;;;;;;;24.15;4.22;;;;;;;8.51;87.65;101123.00;5036192;28;20386;-82
2022/01/03 06:24:30;;;;;;;27.58;4.68;;;;;;;8.61;87.73;101162.00;5036022;28;20470;-77
2022/01/03 06:26:56;;;;;;;25.77;4.15;;;;;;;8.58;88.07;101157.84;5035831;28;20029;-88
2022/01/03 06:29:22;;;;;;;19.42;4.15;;;;;;;8.54;88.38;101152.91;5035722;28;20021;-87
2022/01/03 06:31:48;;;;;;;21.90;4.70;;;;;;;8.39;88.56;101138.22;5035896;28;20045;-75
2022/01/03 06:34:15;;;;;;;22.00;4.13;;;;;;;8.44;88.60;101149.13;5035984;28;20034;-88
2022/01/03 06:36:41;;;;;;;27.50;4.28;;;;;;;8.49;88.76;101140.28;5035640;28;20487;-86
2022/01/03 06:39:08;;;;;;;25.33;4.28;;;;;;;8.33;88.28;101123.88;5035712;28;20115;-77
2022/01/03 06:41:34;;;;;;;20.48;3.83;;;;;;;8.41;89.00;101138.97;5018120;28;20021;-77
2022/01/03 06:43:59;;;;;;;21.63;4.03;;;;;;;8.30;88.97;101134.31;5035617;28;20036;-75
2022/01/03 06:46:24;;;;;;;26.13;4.25;;;;;;;8.39;88.93;101140.81;5035605;28;20024;-76
2022/01/03 06:48:50;;;;;;;26.67;3.90;;;;;;;8.05;89.38;101093.50;5035495;28;20105;-76
2022/01/03 06:51:18;;;;;;;23.60;4.55;;;;;;;8.31;89.48;101141.97;5035650;28;20465;-75
2022/01/03 06:53:44;;;;;;;28.15;4.82;;;;;;;8.32;89.61;101135.06;5035555;28;20113;-87
2022/01/03 06:56:09;;;;;;;21.92;4.10;;;;;;;8.26;89.66;101117.38;5035418;28;20156;-76
2022/01/03 06:58:38;;;;;;;24.33;4.35;;;;;;;8.44;89.56;101133.66;5034469;28;20381;-79
2022/01/03 07:01:04;;;;;;;19.35;4.63;;;;;;;8.41;89.59;101120.97;5035322;28;20049;-80
2022/01/03 07:03:29;;;;;;;24.05;5.00;;;;;;;8.50;90.05;101141.94;5035270;28;20057;-78
2022/01/03 07:05:54;;;;;;;23.63;4.55;;;;;;;8.31;89.83;101107.69;5035324;28;20033;-78
2022/01/03 07:08:21;;;;;;;23.75;4.88;;;;;;;8.49;90.38;101135.13;5035432;28;20033;-74
2022/01/03 07:10:47;;;;;;;18.52;4.53;;;;;;;8.53;90.64;101139.19;5035252;28;20025;-79
2022/01/03 07:13:12;;;;;;;22.08;4.00;;;;;;;8.41;90.85;101108.09;5035115;28;20030;-77
2022/01/03 07:21:06;;;;;;;19.48;3.38;;;;;;;8.40;90.90;101099.53;5035155;28;20037;-75
2022/01/03 07:23:31;;;;;;;18.17;4.15;;;;;;;8.40;90.92;101107.25;5035354;28;20030;-75
2022/01/03 07:25:56;;;;;;;20.90;4.20;;;;;;;8.48;91.12;101114.63;5034831;28;20056;-81
2022/01/03 07:28:22;;;;;;;20.77;3.95;;;;;;;8.50;91.31;101133.38;5033655;28;20030;-78
2022/01/03 07:30:47;;;;;;;18.25;3.80;;;;;;;8.50;91.29;101133.38;5034521;28;20040;-79
2022/01/03 07:33:13;;;;;;;20.70;4.00;;;;;;;8.49;91.44;101135.13;5034727;28;20039;-78
2022/01/03 07:35:38;;;;;;;18.70;3.50;;;;;;;8.09;91.41;101066.75;5035589;28;20028;-81
2022/01/03 07:38:05;;;;;;;21.20;3.40;;;;;;;8.41;91.57;101131.25;5034437;28;20038;-87
2022/01/03 07:40:31;;;;;;;23.23;4.35;;;;;;;8.39;91.83;101130.50;5034646;28;20029;-87
2022/01/03 07:42:57;;;;;;;20.60;3.60;;;;;;;8.33;91.94;101124.69;5034601;28;20021;-84
2022/01/03 07:45:22;;;;;;;21.05;3.63;;;;;;;8.30;91.93;101135.16;5016096;28;20033;-87
2022/01/03 07:47:48;;;;;;;15.88;3.53;;;;;;;8.27;92.01;101134.47;5034195;28;20087;-85
2022/01/03 07:50:14;;;;;;;20.42;3.60;;;;;;;8.07;92.00;101112.28;5034519;28;20021;-77
2022/01/03 07:52:40;;;;;;;21.50;4.22;;;;;;;8.09;92.19;101120.75;5034280;28;20026;-89
2022/01/03 07:55:07;;;;;;;21.50;4.10;;;;;;;8.06;92.41;101128.59;5034445;28;20033;-77
2022/01/03 07:57:33;;;;;;;16.52;4.20;;;;;;;8.16;92.21;101142.72;5034405;28;20473;-77
2022/01/03 07:59:58;;;;;;;21.30;4.00;;;;;;;8.22;91.99;101151.88;5034210;28;20030;-84
2022/01/03 08:02:24;;;;;;;20.08;4.47;;;;;;;8.20;91.95;101151.94;5033926;28;20022;-81
2022/01/03 08:04:50;;;;;;;21.35;4.55;;;;;;;8.26;91.71;101149.09;5034209;28;20029;-82
2022/01/03 08:07:15;;;;;;;18.45;3.47;;;;;;;8.39;91.61;101145.94;5034172;28;20021;-83
2022/01/03 08:09:41;;;;;;;20.20;3.80;;;;;;;8.26;91.32;101114.81;5033981;28;20095;-83
2022/01/03 08:12:07;;;;;;;16.08;3.47;;;;;;;8.29;90.86;101112.91;5034131;28;20100;-77
2022/01/03 08:14:33;;;;;;;17.95;3.40;;;;;;;8.53;90.78;101141.78;5034060;28;20029;-88
2022/01/03 08:16:58;;;;;;;22.55;3.78;;;;;;;8.55;90.76;101139.13;5033586;28;20021;-78
2022/01/03 08:19:24;;;;;;;20.23;4.32;;;;;;;8.58;90.19;101144.13;5034067;28;20036;-87
2022/01/03 08:21:49;;;;;;;17.58;3.58;;;;;;;8.58;90.26;101142.41;5033900;28;20026;-77
2022/01/03 08:24:16;;;;;;;24.02;4.55;;;;;;;8.54;90.10;101129.72;5033748;28;20021;-79
2022/01/03 08:26:44;;;;;;;16.95;3.65;;;;;;;8.63;90.02;101148.13;5033842;28;20022;-78
2022/01/03 08:29:09;;;;;;;19.25;3.75;;;;;;;8.34;89.88;101092.94;5144295;23;20067;-85
2022/01/03 08:31:36;;;;;;;20.30;4.18;;;;;;;8.63;89.77;101139.56;5051638;28;20037;-85
2022/01/03 08:34:03;;;;;;;20.08;4.00;;;;;;;8.55;89.50;101119.38;5053830;28;20028;-87
2022/01/03 08:36:28;;;;;;;15.45;3.90;;;;;;;8.77;88.98;101138.91;5053739;28;20029;-89
2022/01/03 08:38:53;;;;;;;16.00;4.05;;;;;;;8.70;89.00;101114.38;5053750;28;20060;-86
2022/01/03 08:41:19;;;;;;;15.57;4.15;;;;;;;8.83;88.81;101136.84;5052996;28;20025;-89
2022/01/03 08:43:44;;;;;;;19.40;4.43;;;;;;;8.87;88.32;101134.94;5053338;28;20033;-90
2022/01/03 08:46:09;;;;;;;22.92;4.32;;;;;;;8.70;88.43;101114.38;5053108;28;20025;-85
2022/01/03 08:48:35;;;;;;;26.02;5.22;;;;;;;8.89;88.51;101144.25;5053047;28;20033;-78
2022/01/03 08:51:00;;;;;;;16.35;4.15;;;;;;;8.93;88.62;101142.34;5053251;28;20071;-85
2022/01/03 08:53:26;;;;;;;24.02;5.10;;;;;;;8.95;88.40;101145.69;5053137;28;20025;-85
2022/01/03 08:55:57;;;;;;;23.48;5.03;;;;;;;8.87;87.89;101145.25;5053224;28;20029;-84
2022/01/03 08:58:23;;;;;;;21.95;4.38;;;;;;;8.81;88.34;101138.66;5052993;28;20029;-84
2022/01/03 09:00:49;;;;;;;20.00;3.80;;;;;;;8.74;88.06;101133.88;5051866;28;20162;-84
2022/01/03 09:03:15;;;;;;;29.00;5.63;;;;;;;8.80;88.32;101141.31;5052887;28;20049;-88
2022/01/03 09:05:40;;;;;;;20.60;3.80;;;;;;;9.03;88.27;101168.47;5053268;28;20028;-89
2022/01/03 09:08:06;;;;;;;24.25;4.53;;;;;;;9.12;88.13;101178.31;5053244;28;20060;-87
2022/01/03 09:10:31;;;;;;;24.52;3.97;;;;;;;9.21;87.49;101164.94;5053162;28;20021;-87
2022/01/03 09:12:57;;;;;;;20.80;4.13;;;;;;;9.14;87.15;101135.25;5052731;28;20033;-90
2022/01/03 09:15:23;;;;;;;20.30;4.00;;;;;;;9.27;86.83;101138.88;5052899;28;20028;-84
2022/01/03 09:17:49;;;;;;;19.88;3.60;;;;;;;9.22;86.99;101130.53;5052120;28;20048;-86
2022/01/03 09:20:17;;;;;;;23.88;4.05;;;;;;;9.12;86.61;101126.78;5052871;28;20025;-86
2022/01/03 09:22:46;;;;;;;23.35;3.63;;;;;;;8.94;86.63;101101.97;5034590;28;20480;-83
2022/01/03 09:33:54;;;;;;;20.63;4.95;;;;;;;9.42;86.44;101137.22;5145895;22;20054;-84
2022/01/03 09:36:30;;;;;;;19.10;3.85;;;;;;;8.12;85.67;100916.56;5052646;28;20104;-83
2022/01/03 09:38:56;;;;;;;16.08;3.60;;;;;;;8.14;85.45;100925.03;5052465;28;20455;-83
2022/01/03 09:41:23;;;;;;;23.50;4.63;;;;;;;8.16;85.75;100918.94;5034425;28;20433;-85
2022/01/03 09:44:32;;;;;;;19.60;4.22;;;;;;;9.45;86.04;101109.56;5034662;28;20029;-86
2022/01/03 09:47:00;;;;;;;21.27;3.92;;;;;;;8.16;85.45;100900.06;5052276;28;20036;-87
2022/01/03 09:49:32;;;;;;;24.92;4.38;;;;;;;9.55;84.97;101119.38;5051877;28;20111;-87
2022/01/03 09:52:01;;;;;;;23.15;4.22;;;;;;;9.60;84.71;101128.50;5053979;28;20080;-86
2022/01/03 09:54:28;;;;;;;25.02;4.38;;;;;;;9.58;84.37;101104.56;5056571;28;20094;-86
2022/01/03 09:56:54;;;;;;;20.05;4.53;;;;;;;9.76;84.69;101111.28;5056436;28;20526;-84
2022/01/03 09:59:20;;;;;;;21.88;5.00;;;;;;;9.93;83.34;101110.38;5056527;28;20088;-81
2022/01/03 10:01:45;;;;;;;30.25;5.03;;;;;;;9.80;83.64;101088.72;5056244;28;20029;-79
2022/01/03 10:04:14;;;;;;;18.42;3.83;;;;;;;9.87;82.76;101097.78;5038350;28;20115;-80
2022/01/03 10:06:41;;;;;;;23.50;4.18;;;;;;;10.09;83.03;101123.22;5056547;28;20048;-80
2022/01/03 10:09:06;;;;;;;26.77;5.38;;;;;;;9.83;82.48;101073.06;5056342;28;20061;-81
2022/01/03 10:11:32;;;;;;;27.38;5.22;;;;;;;10.10;82.64;101113.72;5056474;28;20496;-80
2022/01/03 10:14:00;;;;;;;22.77;4.15;;;;;;;10.06;82.65;101113.91;5056370;28;20068;-81
2022/01/03 10:16:28;;;;;;;14.40;3.80;;;;;;;10.05;82.64;101117.41;5056211;28;20431;-81
2022/01/03 10:18:53;;;;;;;23.38;4.65;;;;;;;10.05;82.67;101103.69;5056001;28;20651;-81
2022/01/03 10:21:39;;;;;;;21.25;4.30;;;;;;;9.82;83.15;101080.91;5056220;28;20031;-82
2022/01/03 10:24:08;;;;;;;24.42;4.93;;;;;;;9.73;82.73;101061.59;5056199;28;20434;-81
2022/01/03 10:26:36;;;;;;;22.08;4.60;;;;;;;10.13;82.30;101123.88;5056217;28;20043;-80
2022/01/03 10:29:41;;;;;;;22.67;5.22;;;;;;;10.14;82.32;101126.38;5055859;28;20112;-80
2022/01/03 10:32:31;;;;;;;15.88;3.97;;;;;;;8.93;82.22;100917.44;5032123;28;20385;-81
2022/01/03 10:35:18;;;;;;;27.48;4.68;;;;;;;8.93;82.22;100889.94;5035690;28;20627;-81
2022/01/03 10:37:46;;;;;;;22.27;4.50;;;;;;;8.94;82.21;100913.97;5017816;28;20022;-81
2022/01/03 10:40:36;;;;;;;22.13;5.15;;;;;;;10.14;82.40;101097.19;5035750;28;20542;-82
2022/01/03 11:00:21;;;;;;;19.88;4.20;;;;;;;10.00;82.51;101079.88;5034888;28;20404;-80
2022/01/03 11:03:17;;;;;;;19.77;4.28;;;;;;;10.03;82.79;101074.56;5034848;28;20029;-79
2022/01/03 11:15:59;;;;;;;18.95;5.55;;;;;;;9.17;81.86;100916.13;5035243;28;20235;-75
2022/01/03 11:18:35;;;;;;;17.98;4.18;;;;;;;9.99;82.00;101055.81;5034886;28;20112;-78
2022/01/03 11:21:15;;;;;;;17.98;4.25;;;;;;;8.69;81.95;100842.38;5035030;28;20033;-80
2022/01/03 11:23:43;;;;;;;15.82;3.65;;;;;;;9.52;82.79;100988.03;5034974;28;20021;-80
2022/01/03 11:26:11;;;;;;;20.13;4.00;;;;;;;9.78;82.86;101034.66;5033865;28;20025;-79
2022/01/03 11:28:37;;;;;;;19.25;4.10;;;;;;;9.87;83.13;101059.09;5034942;28;20025;-78
2022/01/03 11:31:03;;;;;;;21.45;3.78;;;;;;;9.89;82.86;101040.97;5034877;28;20032;-79
2022/01/03 11:33:30;;;;;;;22.00;4.47;;;;;;;9.92;83.48;101044.19;5050605;28;20110;-79
2022/01/03 11:35:58;;;;;;;16.02;4.15;;;;;;;9.95;82.76;101043.19;5054563;28;20544;-78
2022/01/03 11:38:26;;;;;;;20.30;4.22;;;;;;;9.90;82.34;101024.56;5054611;28;20035;-85
2022/01/03 11:40:52;;;;;;;21.00;4.32;;;;;;;10.05;82.72;101036.59;5054582;28;20100;-84
2022/01/03 11:43:18;;;;;;;20.50;4.47;;;;;;;9.78;81.85;100990.81;5054682;28;20071;-80
2022/01/03 11:45:43;;;;;;;19.30;4.30;;;;;;;10.03;82.03;101033.28;5053206;28;20020;-83
2022/01/03 11:48:10;;;;;;;20.08;3.80;;;;;;;10.05;82.34;101029.69;5033559;28;20554;-89
2022/01/03 11:50:37;;;;;;;18.45;4.07;;;;;;;10.11;82.03;101019.91;5034736;28;20091;-90
2022/01/03 11:53:05;;;;;;;21.02;4.13;;;;;;;10.09;81.95;101017.44;5034802;28;20021;-77
2022/01/03 11:55:33;;;;;;;19.23;4.40;;;;;;;9.88;82.09;100985.13;5033093;28;20029;-79
2022/01/03 12:06:00;;;;;;;16.75;4.60;;;;;;;9.89;82.73;101003.09;5034208;28;20496;-81
2022/01/03 12:08:30;;;;;;;25.98;3.90;;;;;;;9.78;82.81;100983.06;5034101;28;20087;-82
2022/01/03 12:11:00;;;;;;;16.08;4.10;;;;;;;9.92;82.63;100989.19;5034357;28;20103;-79
2022/01/03 12:13:45;;;;;;;24.63;4.30;;;;;;;9.94;82.52;100998.53;5034155;28;20026;-79
2022/01/03 12:16:12;;;;;;;18.52;4.18;;;;;;;9.89;82.63;100979.88;5033484;28;20029;-83
2022/01/03 12:18:38;;;;;;;17.63;4.05;;;;;;;9.81;82.59;100968.34;5032262;28;20037;-80
2022/01/03 12:21:03;;;;;;;20.98;4.82;;;;;;;9.94;82.77;100980.47;5033813;28;20036;-85
2022/01/03 12:23:34;;;;;;;15.70;3.70;;;;;;;9.90;82.77;100973.81;5033995;28;20084;-82
2022/01/03 12:26:16;;;;;;;24.33;4.50;;;;;;;9.85;83.11;100969.84;5033622;28;20583;-84
2022/01/03 12:28:59;;;;;;;;;;;;;;;9.92;83.05;100966.78;5033982;28;20026;-83